createdAt,value
2022-11-24T00:00:06.970Z,5.25
2022-11-24T00:05:09.642Z,6.93
2022-11-24T00:10:13.581Z,6.57
2022-11-24T00:15:16.316Z,7.65
2022-11-24T00:20:18.888Z,6.80
2022-11-24T00:25:22.839Z,7.20
2022-11-24T00:30:25.485Z,4.95
2022-11-24T00:35:28.120Z,7.32
2022-11-24T00:40:35.010Z,7.60
2022-11-24T00:45:37.911Z,7.55
2022-11-24T00:50:40.847Z,7.95
2022-11-24T00:55:44.804Z,7.43
2022-11-24T01:00:47.945Z,6.15
2022-11-24T01:05:50.571Z,7.82
2022-11-24T01:10:54.519Z,8.60
2022-11-24T01:15:57.180Z,8.88
2022-11-24T01:21:00.002Z,8.00
2022-11-24T01:26:06.638Z,7.95
2022-11-24T01:31:09.959Z,8.00
2022-11-24T01:36:12.869Z,8.13
2022-11-24T01:41:18.865Z,8.27
2022-11-24T01:46:25.139Z,9.27
2022-11-24T01:51:32.579Z,7.90
2022-11-24T01:56:40.605Z,8.35
2022-11-24T02:01:43.295Z,7.68
2022-11-24T02:06:47.765Z,8.27
2022-11-24T02:11:54.747Z,6.30
2022-11-24T02:16:57.408Z,8.00
2022-11-24T02:22:00.100Z,8.20
2022-11-24T02:27:04.812Z,7.82
2022-11-24T02:32:09.822Z,8.77
2022-11-24T02:37:12.466Z,8.32
2022-11-24T02:42:16.551Z,8.80
2022-11-24T02:47:19.169Z,7.00
2022-11-24T02:52:21.740Z,10.55
2022-11-24T02:57:25.913Z,9.15
2022-11-24T03:02:30.450Z,6.80
2022-11-24T03:12:37.041Z,9.10
2022-11-24T03:17:39.716Z,6.38
2022-11-24T03:22:42.586Z,8.38
2022-11-24T03:27:46.956Z,7.68
2022-11-24T03:32:51.865Z,6.75
2022-11-24T03:37:54.496Z,7.90
2022-11-24T03:42:58.453Z,6.72
2022-11-24T03:48:01.095Z,7.00
2022-11-24T03:53:03.846Z,6.82
2022-11-24T03:58:07.746Z,6.60
2022-11-24T04:03:10.455Z,5.10
2022-11-24T04:08:13.192Z,6.13
2022-11-24T04:13:18.683Z,6.53
2022-11-24T04:18:21.939Z,6.43
2022-11-24T04:23:24.493Z,6.05
2022-11-24T04:28:28.414Z,4.93
2022-11-24T04:33:31.188Z,4.88
2022-11-24T04:39:23.203Z,4.70
2022-11-24T04:43:57.619Z,5.35
2022-11-24T04:49:00.193Z,5.30
2022-11-24T04:54:03.961Z,5.57
2022-11-24T04:59:08.574Z,5.60
2022-11-24T05:04:12.301Z,5.38
2022-11-24T05:09:16.748Z,3.50
2022-11-24T05:14:20.671Z,2.92
2022-11-24T05:19:25.354Z,4.45
2022-11-24T05:24:29.876Z,4.05
2022-11-24T05:29:33.764Z,4.65
2022-11-24T05:34:36.526Z,4.18
2022-11-24T05:39:39.327Z,4.50
2022-11-24T05:44:43.196Z,4.90
2022-11-24T05:49:45.898Z,4.40
2022-11-24T05:54:48.502Z,4.28
2022-11-24T05:59:52.405Z,3.75
2022-11-24T06:04:55.244Z,3.20
2022-11-24T06:09:57.832Z,4.60
2022-11-24T06:15:01.737Z,3.83
2022-11-24T06:20:05.167Z,2.78
2022-11-24T06:25:09.472Z,3.67
2022-11-24T06:30:15.795Z,2.88
2022-11-24T06:35:18.646Z,4.00
2022-11-24T06:40:21.222Z,3.95
2022-11-24T06:45:25.507Z,3.80
2022-11-24T06:50:33.300Z,3.00
2022-11-24T06:55:36.302Z,3.45
2022-11-24T07:00:40.441Z,3.45
2022-11-24T07:05:43.254Z,3.05
2022-11-24T07:10:45.980Z,3.90
2022-11-24T07:15:49.910Z,3.90
2022-11-24T07:20:52.502Z,3.15
2022-11-24T07:25:55.269Z,4.03
2022-11-24T07:31:00.044Z,3.42
2022-11-24T07:36:03.832Z,3.65
2022-11-24T07:41:08.941Z,2.17
2022-11-24T07:46:15.118Z,2.53
2022-11-24T07:51:18.026Z,2.75
2022-11-24T07:56:20.608Z,2.78
2022-11-24T08:01:24.832Z,3.00
2022-11-24T08:06:38.743Z,2.47
2022-11-24T08:11:43.381Z,3.13
2022-11-24T08:16:47.422Z,2.90
2022-11-24T08:21:50.214Z,3.75
2022-11-24T08:26:52.777Z,2.30
2022-11-24T08:31:58.236Z,2.53
2022-11-24T08:37:00.951Z,2.70
2022-11-24T08:42:03.570Z,2.72
2022-11-24T08:47:07.512Z,2.97
2022-11-24T08:52:10.318Z,1.92
2022-11-24T08:57:20.221Z,3.17
2022-11-24T09:02:25.692Z,2.53
2022-11-24T09:07:28.338Z,3.22
2022-11-24T09:12:30.980Z,2.53
2022-11-24T09:17:35.248Z,2.83
2022-11-24T09:22:38.203Z,1.83
2022-11-24T09:27:43.788Z,2.05
2022-11-24T09:32:47.721Z,1.98
2022-11-24T09:37:51.215Z,2.50
2022-11-24T09:43:02.052Z,1.80
2022-11-24T09:48:13.507Z,1.85
2022-11-24T09:53:20.445Z,1.70
2022-11-24T09:58:36.353Z,1.60
2022-11-24T10:03:44.035Z,1.75
2022-11-24T10:09:07.713Z,1.60
2022-11-24T10:14:42.819Z,1.25
2022-11-24T10:19:50.936Z,1.75
2022-11-24T10:25:10.517Z,1.95
2022-11-24T10:30:18.656Z,1.67
2022-11-24T10:35:27.338Z,2.00
2022-11-24T10:46:01.841Z,1.67
2022-11-24T10:51:29.525Z,2.13
2022-11-24T10:56:40.170Z,2.20
2022-11-24T11:01:44.908Z,2.13
2022-11-24T11:06:49.007Z,2.20
2022-11-24T11:11:54.771Z,2.00
2022-11-24T11:16:58.817Z,3.17
2022-11-24T11:22:07.264Z,2.40
2022-11-24T11:27:21.869Z,1.98
2022-11-24T11:43:04.535Z,2.67
2022-11-24T11:48:23.768Z,2.30
2022-11-24T11:53:33.912Z,2.45
2022-11-24T11:58:56.700Z,2.78
2022-11-24T12:04:13.467Z,2.17
2022-11-24T12:09:33.930Z,2.63
2022-11-24T12:14:48.841Z,2.55
2022-11-24T12:20:04.324Z,2.13
2022-11-24T12:25:23.506Z,2.45
2022-11-24T12:30:29.603Z,2.28
2022-11-24T12:35:39.673Z,2.50
2022-11-24T12:41:18.023Z,2.40
2022-11-24T12:46:26.782Z,2.50
2022-11-24T12:51:33.039Z,2.25
2022-11-24T12:56:43.487Z,2.58
2022-11-24T13:01:54.436Z,2.75
2022-11-24T13:07:02.214Z,2.75
2022-11-24T13:12:14.247Z,2.20
2022-11-24T13:17:36.330Z,2.72
2022-11-24T13:22:54.774Z,2.30
2022-11-24T13:27:59.700Z,2.83
2022-11-24T13:33:21.647Z,2.75
2022-11-24T13:38:51.980Z,2.08
2022-11-24T13:44:24.429Z,2.92
2022-11-24T13:49:39.031Z,3.17
2022-11-24T13:59:46.192Z,2.50
2022-11-24T14:04:49.104Z,1.95
2022-11-24T14:09:53.035Z,2.67
2022-11-24T14:15:21.879Z,2.90
2022-11-24T14:20:26.418Z,2.95
2022-11-24T14:30:34.828Z,2.08
2022-11-24T14:35:45.264Z,3.25
2022-11-24T14:40:51.668Z,3.20
2022-11-24T14:45:58.586Z,2.92
2022-11-24T14:51:13.819Z,3.00
2022-11-24T14:56:27.939Z,3.15
2022-11-24T15:01:36.075Z,2.92
2022-11-24T15:06:39.250Z,2.78
2022-11-24T15:11:41.969Z,2.85
2022-11-24T15:16:46.111Z,2.22
2022-11-24T15:21:48.725Z,2.80
2022-11-24T15:26:51.334Z,3.15
2022-11-24T15:31:55.309Z,2.45
2022-11-24T15:36:57.876Z,2.08
2022-11-24T15:42:00.620Z,3.28
2022-11-24T15:47:06.600Z,2.58
2022-11-24T15:52:09.229Z,2.60
2022-11-24T15:57:11.907Z,3.58
2022-11-24T16:02:15.913Z,3.47
2022-11-24T16:07:21.047Z,2.00
2022-11-24T16:12:24.776Z,15.05
2022-11-24T16:17:28.706Z,2.53
2022-11-24T16:22:31.244Z,3.15
2022-11-24T16:27:33.829Z,3.00
2022-11-24T16:32:37.719Z,5.22
2022-11-24T16:37:40.287Z,3.55
2022-11-24T16:42:42.861Z,3.65
2022-11-24T16:47:46.842Z,4.45
2022-11-24T16:52:51.527Z,3.10
2022-11-24T16:57:54.318Z,13.35
2022-11-24T17:02:58.225Z,7.05
2022-11-24T17:08:05.707Z,2.47
2022-11-24T17:13:08.555Z,4.78
2022-11-24T17:18:24.436Z,3.72
2022-11-24T17:23:28.082Z,3.47
2022-11-24T17:28:30.839Z,3.40
2022-11-24T17:33:36.545Z,3.10
2022-11-24T17:38:39.090Z,4.15
2022-11-24T17:43:41.954Z,6.13
2022-11-24T17:48:46.712Z,7.13
2022-11-24T17:53:50.988Z,6.40
2022-11-24T17:58:55.110Z,7.00
2022-11-24T18:03:59.244Z,9.77
2022-11-24T18:09:01.793Z,12.15
2022-11-24T18:14:05.233Z,10.60
2022-11-24T18:19:11.002Z,7.53
2022-11-24T18:24:17.488Z,15.52
2022-11-24T18:29:23.663Z,14.00
2022-11-24T18:34:27.525Z,7.95
2022-11-24T18:39:30.507Z,4.78
2022-11-24T18:44:33.386Z,3.10
2022-11-24T18:49:37.651Z,2.47
2022-11-24T18:54:40.301Z,2.53
2022-11-24T18:59:42.824Z,2.35
2022-11-24T19:04:46.703Z,2.22
2022-11-24T19:09:49.304Z,2.13
2022-11-24T19:14:51.930Z,2.03
2022-11-24T19:19:55.902Z,2.55
2022-11-24T19:24:58.445Z,1.33
2022-11-24T19:30:00.972Z,1.90
2022-11-24T19:35:05.577Z,2.15
2022-11-24T19:45:12.161Z,2.45
2022-11-24T19:50:16.218Z,3.20
2022-11-24T19:55:18.795Z,2.85
2022-11-24T20:00:21.865Z,2.75
2022-11-24T20:05:25.757Z,2.80
2022-11-24T20:10:28.415Z,3.00
2022-11-24T20:15:33.360Z,2.80
2022-11-24T20:20:37.258Z,3.47
2022-11-24T20:25:39.834Z,2.80
2022-11-24T20:30:42.510Z,4.30
2022-11-24T20:35:46.499Z,6.57
2022-11-24T20:40:49.076Z,7.50
2022-11-24T20:45:51.692Z,5.30
2022-11-24T20:50:55.731Z,4.60
2022-11-24T20:56:05.859Z,4.45
2022-11-24T21:01:11.517Z,4.55
2022-11-24T21:06:15.847Z,4.35
2022-11-24T21:11:20.901Z,3.47
2022-11-24T21:16:26.081Z,4.50
2022-11-24T21:21:34.009Z,4.43
2022-11-24T21:26:37.880Z,5.25
2022-11-24T21:31:40.845Z,5.60
2022-11-24T21:36:45.480Z,5.20
2022-11-24T21:46:55.728Z,5.47
2022-11-24T21:52:00.069Z,5.10
2022-11-24T21:57:02.611Z,5.20
2022-11-24T22:02:08.909Z,5.57
2022-11-24T22:07:16.838Z,5.18
2022-11-24T22:12:19.493Z,3.75
2022-11-24T22:17:22.134Z,5.60
2022-11-24T22:22:26.282Z,5.30
2022-11-24T22:27:28.839Z,4.05
2022-11-24T22:32:31.425Z,5.72
2022-11-24T22:37:37.004Z,5.07
2022-11-24T22:42:39.655Z,5.53
2022-11-24T22:47:42.193Z,5.68
2022-11-24T22:52:50.918Z,4.65
2022-11-24T22:57:56.952Z,5.97
2022-11-24T23:02:59.833Z,5.93
2022-11-24T23:08:03.799Z,5.88
2022-11-24T23:13:09.345Z,4.78
2022-11-24T23:18:11.953Z,4.60
2022-11-24T23:23:15.818Z,3.75
2022-11-24T23:28:18.404Z,3.40
2022-11-24T23:33:20.973Z,4.15
2022-11-24T23:38:30.053Z,3.47
2022-11-24T23:43:32.712Z,3.88
2022-11-24T23:48:37.572Z,3.28
2022-11-24T23:53:42.316Z,2.90
2022-11-24T23:58:45.410Z,3.35
